Portada
METAR-TAF:

METAR-TAF

Aeropuertos :

Aeropuerto de Ciudad Real

Ciudad Real, España

latitud: 38-51-17N, longitud: 3-58-08W, altitud: 636 m

METAR: falta

Hora: 23:31 (21:31 UTC)

Pronóstico

El informe se hizo hace 1 hora y 31 minutos, a las 20:00 UTC
Pronóstico válido del 23 a las 21 UTC al 24 a las 21 UTC
Viento 9 kt del suroeste
Visibilidad 10 km o más
sin nubes por debajo de 1500 m y sin presencia de cumulonimbus.

TAF: LERL 232000Z 2321/2421 23009KT CAVOK TX41/2415Z TN28/2405Z

Observaciones y pronósticos meteorológicos de más de 4000 aeropuertos (mensajes METAR y TAF).

Los puntos amarillos y rojos representan las estaciones disponibles.

Ponga el ratón en el punto deseado para ver el nombre de la estación.

Haga clic para ver las observaciones y los pronósticos meteorológicos.

Para cambiar el mapa : haga clic en los botones verdes con una cruz de color negro para hacer un zoom, en el botón verde con un guión para alejar o en las flechas verdes para mapas adyacentes.


METAR-TAF: